createdAt,value
2023-01-07T00:00:01.954Z,12.05
2023-01-07T00:02:39.280Z,11.93
2023-01-07T00:05:06.817Z,11.86
2023-01-07T00:07:33.993Z,11.84
2023-01-07T00:10:01.160Z,11.71
2023-01-07T00:12:28.627Z,11.93
2023-01-07T00:14:55.814Z,11.83
2023-01-07T00:17:23.036Z,11.78
2023-01-07T00:19:50.544Z,11.84
2023-01-07T00:22:17.737Z,11.96
2023-01-07T00:24:44.957Z,11.80
2023-01-07T00:27:12.392Z,11.69
2023-01-07T00:29:39.586Z,11.62
2023-01-07T00:32:06.810Z,11.63
2023-01-07T00:34:35.150Z,11.53
2023-01-07T00:37:37.847Z,11.47
2023-01-07T00:40:05.507Z,11.44
2023-01-07T00:42:51.367Z,11.45
2023-01-07T00:45:18.795Z,11.45
2023-01-07T00:47:46.029Z,11.28
2023-01-07T00:50:13.273Z,11.47
2023-01-07T00:52:40.810Z,11.52
2023-01-07T00:55:08.424Z,11.57
2023-01-07T00:57:35.829Z,11.61
2023-01-07T01:00:03.625Z,11.66
2023-01-07T01:02:31.448Z,11.70
2023-01-07T01:04:58.657Z,11.73
2023-01-07T01:07:26.215Z,11.82
2023-01-07T01:09:53.366Z,11.93
2023-01-07T01:12:20.602Z,11.94
2023-01-07T01:14:48.462Z,11.97
2023-01-07T01:17:15.611Z,11.99
2023-01-07T01:19:43.168Z,12.01
2023-01-07T01:22:10.679Z,12.04
2023-01-07T01:24:37.800Z,12.02
2023-01-07T01:27:05.068Z,12.09
2023-01-07T01:29:32.498Z,12.15
2023-01-07T01:32:01.009Z,12.37
2023-01-07T01:34:30.749Z,12.49
2023-01-07T01:36:58.213Z,12.48
2023-01-07T01:39:25.739Z,12.53
2023-01-07T01:41:53.023Z,12.61
2023-01-07T01:44:38.753Z,12.58
2023-01-07T01:47:19.037Z,12.57
2023-01-07T01:49:48.384Z,12.66
2023-01-07T01:52:16.441Z,12.71
2023-01-07T01:54:45.190Z,12.68
2023-01-07T01:57:12.951Z,12.66
2023-01-07T01:59:41.164Z,12.68
2023-01-07T02:02:09.068Z,12.73
2023-01-07T02:04:36.691Z,12.73
2023-01-07T02:07:05.190Z,12.73
2023-01-07T02:09:33.020Z,12.81
2023-01-07T02:12:06.685Z,12.78
2023-01-07T02:14:41.857Z,12.76
2023-01-07T02:17:09.238Z,12.59
2023-01-07T02:19:39.548Z,12.26
2023-01-07T02:22:14.589Z,12.19
2023-01-07T02:24:48.553Z,12.42
2023-01-07T02:27:20.839Z,12.29
2023-01-07T02:29:48.653Z,12.47
2023-01-07T02:32:22.087Z,12.48
2023-01-07T02:35:03.445Z,12.61
2023-01-07T02:37:44.483Z,12.54
2023-01-07T02:40:20.554Z,12.56
2023-01-07T02:42:51.402Z,12.52
2023-01-07T02:45:29.957Z,12.50
2023-01-07T02:48:01.747Z,12.46
2023-01-07T02:50:29.443Z,12.29
2023-01-07T02:52:56.735Z,12.20
2023-01-07T02:55:29.903Z,12.35
2023-01-07T02:58:04.275Z,12.40
2023-01-07T03:00:47.025Z,12.47
2023-01-07T03:03:33.056Z,12.45
2023-01-07T03:06:00.589Z,12.38
2023-01-07T03:08:32.588Z,12.27
2023-01-07T03:11:00.797Z,12.33
2023-01-07T03:13:31.618Z,12.23
2023-01-07T03:16:09.246Z,12.27
2023-01-07T03:18:38.623Z,12.25
2023-01-07T03:21:06.932Z,12.08
2023-01-07T03:23:34.177Z,11.97
2023-01-07T03:26:02.488Z,11.99
2023-01-07T03:28:30.276Z,11.97
2023-01-07T03:30:57.763Z,11.93
2023-01-07T03:33:41.838Z,11.88
2023-01-07T03:36:09.312Z,11.75
2023-01-07T03:38:36.728Z,11.90
2023-01-07T03:41:04.272Z,11.83
2023-01-07T03:43:31.502Z,11.84
2023-01-07T03:45:59.443Z,11.91
2023-01-07T03:48:27.532Z,11.60
2023-01-07T03:50:55.750Z,11.60
2023-01-07T03:53:23.181Z,11.51
2023-01-07T03:55:50.795Z,11.41
2023-01-07T03:58:18.068Z,11.66
2023-01-07T04:00:45.690Z,11.65
2023-01-07T04:03:14.117Z,11.60
2023-01-07T04:05:41.491Z,11.71
2023-01-07T04:08:09.136Z,11.84
2023-01-07T04:10:36.976Z,11.80
2023-01-07T04:13:04.283Z,11.87
2023-01-07T04:15:31.787Z,11.88
2023-01-07T04:17:59.516Z,11.85
2023-01-07T04:20:27.783Z,11.92
2023-01-07T04:22:54.929Z,11.86
2023-01-07T04:25:23.054Z,11.51
2023-01-07T04:27:50.677Z,10.93
2023-01-07T04:30:17.889Z,11.26
2023-01-07T04:32:45.475Z,11.36
2023-01-07T04:35:12.833Z,11.40
2023-01-07T04:37:40.073Z,11.44
2023-01-07T04:40:08.021Z,11.50
2023-01-07T04:42:35.460Z,11.65
2023-01-07T04:45:03.239Z,11.62
2023-01-07T04:47:30.997Z,11.71
2023-01-07T04:49:58.588Z,11.70
2023-01-07T04:52:26.969Z,11.77
2023-01-07T04:54:54.503Z,11.79
2023-01-07T04:57:21.670Z,11.87
2023-01-07T04:59:49.068Z,11.87
2023-01-07T05:02:16.584Z,11.90
2023-01-07T05:04:44.680Z,12.02
2023-01-07T05:07:12.200Z,11.71
2023-01-07T05:09:41.076Z,11.79
2023-01-07T05:12:08.311Z,11.79
2023-01-07T05:14:36.519Z,11.86
2023-01-07T05:17:04.076Z,11.97
2023-01-07T05:19:31.617Z,12.03
2023-01-07T05:22:00.625Z,12.04
2023-01-07T05:24:28.613Z,12.06
2023-01-07T05:26:56.124Z,12.02
2023-01-07T05:29:23.322Z,11.98
2023-01-07T05:31:50.803Z,11.99
2023-01-07T05:34:18.283Z,11.87
2023-01-07T05:36:45.671Z,11.91
2023-01-07T05:39:14.316Z,11.97
2023-01-07T05:41:42.508Z,11.98
2023-01-07T05:44:09.751Z,11.98
2023-01-07T05:46:37.231Z,12.01
2023-01-07T05:49:04.549Z,12.09
2023-01-07T05:51:31.879Z,12.04
2023-01-07T05:53:59.375Z,11.71
2023-01-07T05:56:26.527Z,11.58
2023-01-07T05:58:53.702Z,11.49
2023-01-07T06:01:21.461Z,11.06
2023-01-07T06:03:49.029Z,11.50
2023-01-07T06:06:16.269Z,11.60
2023-01-07T06:08:43.539Z,11.54
2023-01-07T06:11:10.987Z,11.51
2023-01-07T06:13:38.239Z,11.50
2023-01-07T06:16:06.621Z,11.37
2023-01-07T06:18:34.474Z,11.50
2023-01-07T06:21:01.762Z,11.53
2023-01-07T06:23:29.061Z,11.51
2023-01-07T06:25:56.669Z,11.39
2023-01-07T06:28:23.920Z,11.03
2023-01-07T06:30:51.097Z,11.15
2023-01-07T06:33:18.652Z,11.48
2023-01-07T06:35:45.919Z,11.27
2023-01-07T06:38:13.149Z,10.76
2023-01-07T06:40:40.581Z,10.92
2023-01-07T06:43:07.713Z,11.17
2023-01-07T06:45:34.956Z,11.31
2023-01-07T06:48:02.815Z,11.26
2023-01-07T06:50:29.989Z,11.32
2023-01-07T06:52:57.177Z,11.64
2023-01-07T06:55:24.606Z,11.90
2023-01-07T06:57:51.824Z,12.59
2023-01-07T07:00:19.038Z,13.16
2023-01-07T07:02:46.960Z,13.84
2023-01-07T07:05:14.184Z,14.38
2023-01-07T07:07:41.434Z,15.52
2023-01-07T07:10:08.954Z,16.35
2023-01-07T07:12:36.264Z,16.87
2023-01-07T07:15:04.509Z,17.46
2023-01-07T07:17:31.987Z,17.33
2023-01-07T07:19:59.200Z,17.02
2023-01-07T07:22:26.453Z,17.35
2023-01-07T07:24:53.914Z,16.68
2023-01-07T07:27:21.052Z,16.30
2023-01-07T07:29:48.203Z,16.53
2023-01-07T07:32:15.658Z,16.56
2023-01-07T07:34:42.839Z,16.33
2023-01-07T07:37:09.982Z,16.23
2023-01-07T07:39:37.627Z,16.71
2023-01-07T07:42:05.106Z,17.02
2023-01-07T07:44:32.438Z,17.60
2023-01-07T07:46:59.859Z,18.47
2023-01-07T07:49:27.144Z,18.98
2023-01-07T07:51:54.458Z,19.29
2023-01-07T07:54:23.802Z,19.62
2023-01-07T07:56:51.206Z,19.31
2023-01-07T07:59:18.404Z,19.60
2023-01-07T08:01:45.951Z,20.27
2023-01-07T08:04:13.575Z,20.15
2023-01-07T08:06:40.795Z,20.43
2023-01-07T08:09:07.981Z,20.14
2023-01-07T08:11:35.529Z,19.64
2023-01-07T08:14:02.856Z,19.51
2023-01-07T08:16:30.170Z,19.41
2023-01-07T08:18:57.639Z,19.71
2023-01-07T08:21:24.880Z,19.34
2023-01-07T08:23:52.146Z,18.88
2023-01-07T08:26:19.664Z,18.50
2023-01-07T08:28:47.011Z,18.26
2023-01-07T08:31:14.318Z,18.17
2023-01-07T08:33:41.798Z,18.30
2023-01-07T08:36:22.099Z,18.86
2023-01-07T08:38:51.664Z,19.06
2023-01-07T08:41:19.287Z,18.66
2023-01-07T08:43:46.896Z,18.49
2023-01-07T08:46:14.430Z,18.36
2023-01-07T08:48:41.620Z,18.72
2023-01-07T08:51:08.815Z,19.20
2023-01-07T08:53:36.327Z,19.62
2023-01-07T08:56:03.619Z,19.70
2023-01-07T08:58:30.880Z,19.08
2023-01-07T09:01:05.771Z,19.18
2023-01-07T09:03:33.620Z,19.05
2023-01-07T09:06:01.199Z,19.10
2023-01-07T09:08:28.360Z,18.88
2023-01-07T09:10:56.158Z,18.32
2023-01-07T09:13:23.613Z,19.27
2023-01-07T09:15:50.847Z,21.12
2023-01-07T09:18:18.040Z,22.15
2023-01-07T09:20:45.553Z,21.94
2023-01-07T09:23:12.738Z,23.64
2023-01-07T09:25:40.071Z,23.99
2023-01-07T09:28:07.655Z,22.93
2023-01-07T09:30:34.863Z,23.51
2023-01-07T09:33:02.092Z,25.12
2023-01-07T09:35:29.551Z,25.88
2023-01-07T09:37:56.763Z,26.06
2023-01-07T09:40:23.916Z,25.26
2023-01-07T09:43:12.709Z,25.00
2023-01-07T09:45:44.609Z,24.34
2023-01-07T09:48:24.215Z,23.47
2023-01-07T09:50:53.221Z,23.31
2023-01-07T09:53:28.188Z,23.59
2023-01-07T09:56:10.504Z,24.50
2023-01-07T09:58:41.396Z,25.90
2023-01-07T10:01:27.118Z,25.62
2023-01-07T10:04:14.952Z,25.05
2023-01-07T10:06:49.106Z,25.29
2023-01-07T10:09:26.262Z,25.41
2023-01-07T10:11:57.662Z,26.02
2023-01-07T10:14:38.304Z,27.32
2023-01-07T10:17:16.246Z,27.63
2023-01-07T10:19:43.716Z,27.75
2023-01-07T10:22:21.605Z,28.85
2023-01-07T10:24:51.006Z,29.98
2023-01-07T10:27:18.785Z,31.01
2023-01-07T10:29:46.930Z,31.55
2023-01-07T10:32:17.780Z,31.79
2023-01-07T10:34:46.268Z,32.09
2023-01-07T10:37:32.172Z,31.62
2023-01-07T10:40:18.316Z,31.77
2023-01-07T10:42:54.580Z,32.54
2023-01-07T10:45:30.799Z,33.22
2023-01-07T10:48:01.074Z,33.55
2023-01-07T10:50:31.399Z,33.12
2023-01-07T10:53:10.818Z,31.13
2023-01-07T10:55:49.918Z,30.11
2023-01-07T10:58:17.067Z,28.87
2023-01-07T11:00:46.246Z,29.54
2023-01-07T11:03:18.869Z,29.78
2023-01-07T11:05:47.087Z,29.43
2023-01-07T11:08:25.171Z,29.16
2023-01-07T11:10:52.733Z,29.09
2023-01-07T11:13:21.686Z,28.83
2023-01-07T11:15:50.068Z,28.40
2023-01-07T11:18:21.517Z,27.46
2023-01-07T11:20:52.831Z,27.52
2023-01-07T11:23:32.575Z,26.31
2023-01-07T11:26:06.099Z,26.81
2023-01-07T11:28:33.663Z,25.87
2023-01-07T11:31:01.109Z,25.85
2023-01-07T11:34:01.815Z,25.28
2023-01-07T11:36:38.458Z,24.48
2023-01-07T11:39:09.257Z,23.88
2023-01-07T11:41:36.691Z,22.98
2023-01-07T11:44:03.946Z,21.87
2023-01-07T11:46:31.670Z,20.90
2023-01-07T11:49:01.019Z,20.32
2023-01-07T11:51:28.532Z,19.15
2023-01-07T11:53:56.751Z,18.82
2023-01-07T11:56:25.625Z,19.24
2023-01-07T11:59:15.472Z,17.60
2023-01-07T12:01:43.442Z,18.08
2023-01-07T12:04:20.330Z,18.00
2023-01-07T12:06:48.593Z,18.19
2023-01-07T12:09:18.790Z,17.87
2023-01-07T12:11:45.910Z,18.31
2023-01-07T12:14:26.687Z,18.08
2023-01-07T12:16:54.267Z,17.79
2023-01-07T12:19:22.571Z,18.00
2023-01-07T12:21:52.752Z,17.51
2023-01-07T12:24:23.103Z,17.64
2023-01-07T12:26:53.299Z,17.31
2023-01-07T12:29:32.036Z,17.30
2023-01-07T12:31:59.306Z,17.09
2023-01-07T12:34:45.009Z,16.87
2023-01-07T12:37:28.667Z,16.82
2023-01-07T12:39:57.884Z,16.71
2023-01-07T12:42:26.669Z,16.73
2023-01-07T12:44:58.074Z,15.84
2023-01-07T12:47:31.120Z,16.90
2023-01-07T12:50:13.742Z,16.39
2023-01-07T12:52:41.266Z,16.44
2023-01-07T12:55:21.001Z,17.01
2023-01-07T12:58:11.688Z,17.04
2023-01-07T13:00:51.610Z,16.99
2023-01-07T13:03:31.507Z,16.24
2023-01-07T13:06:00.252Z,15.94
2023-01-07T13:08:33.949Z,16.26
2023-01-07T13:11:20.484Z,16.44
2023-01-07T13:13:49.573Z,16.63
2023-01-07T13:16:16.855Z,16.68
2023-01-07T13:18:44.205Z,15.98
2023-01-07T13:21:12.761Z,15.16
2023-01-07T13:23:58.769Z,16.36
2023-01-07T13:26:35.428Z,16.74
2023-01-07T13:29:08.781Z,16.40
2023-01-07T13:31:36.293Z,16.41
2023-01-07T13:34:03.513Z,16.54
2023-01-07T13:36:30.699Z,15.95
2023-01-07T13:39:07.440Z,16.19
2023-01-07T13:41:40.597Z,15.40
2023-01-07T13:44:26.941Z,16.11
2023-01-07T13:46:54.143Z,15.89
2023-01-07T13:49:29.881Z,16.29
2023-01-07T13:51:57.452Z,16.18
2023-01-07T13:54:43.766Z,15.18
2023-01-07T13:57:26.287Z,15.37
2023-01-07T13:59:54.078Z,15.29
2023-01-07T14:02:25.233Z,15.30
2023-01-07T14:05:06.222Z,14.65
2023-01-07T14:07:42.299Z,15.30
2023-01-07T14:10:17.582Z,15.46
2023-01-07T14:13:05.147Z,15.49
2023-01-07T14:15:44.637Z,14.95
2023-01-07T14:18:21.047Z,14.39
2023-01-07T14:20:49.067Z,14.49
2023-01-07T14:23:30.187Z,14.13
2023-01-07T14:25:57.623Z,14.71
2023-01-07T14:28:43.719Z,15.02
2023-01-07T14:31:23.874Z,13.85
2023-01-07T14:33:52.260Z,14.51
2023-01-07T14:36:19.832Z,14.83
2023-01-07T14:38:54.462Z,14.64
2023-01-07T14:41:23.734Z,14.72
2023-01-07T14:44:04.723Z,14.93
2023-01-07T14:46:38.327Z,15.60
2023-01-07T14:49:05.697Z,15.37
2023-01-07T14:51:37.879Z,14.92
2023-01-07T14:54:24.085Z,15.06
2023-01-07T14:56:54.692Z,13.81
2023-01-07T14:59:21.804Z,14.54
2023-01-07T15:01:51.732Z,13.59
2023-01-07T15:04:19.218Z,13.64
2023-01-07T15:06:46.420Z,13.30
2023-01-07T15:09:32.753Z,12.95
2023-01-07T15:12:19.959Z,13.48
2023-01-07T15:15:07.151Z,13.46
2023-01-07T15:17:34.653Z,14.17
2023-01-07T15:20:03.933Z,14.32
2023-01-07T15:22:34.155Z,14.23
2023-01-07T15:25:07.854Z,14.27
2023-01-07T15:27:41.276Z,13.90
2023-01-07T15:30:24.835Z,13.82
2023-01-07T15:33:01.122Z,13.92
2023-01-07T15:35:37.708Z,13.30
2023-01-07T15:38:05.324Z,12.48
2023-01-07T15:40:32.828Z,12.48
2023-01-07T15:43:00.370Z,13.30
2023-01-07T15:45:28.550Z,12.88
2023-01-07T15:48:11.128Z,13.16
2023-01-07T15:50:40.875Z,11.78
2023-01-07T15:53:11.519Z,12.80
2023-01-07T15:55:39.296Z,13.32
2023-01-07T15:58:07.163Z,12.93
2023-01-07T16:00:35.452Z,12.87
2023-01-07T16:03:03.206Z,13.36
2023-01-07T16:05:30.661Z,13.08
2023-01-07T16:08:01.362Z,12.96
2023-01-07T16:10:33.503Z,12.46
2023-01-07T16:13:01.506Z,12.08
2023-01-07T16:15:30.171Z,11.11
2023-01-07T16:17:58.438Z,11.99
2023-01-07T16:20:29.771Z,11.22
2023-01-07T16:23:09.577Z,11.15
2023-01-07T16:25:41.474Z,11.59
2023-01-07T16:28:10.593Z,11.26
2023-01-07T16:30:38.296Z,10.69
2023-01-07T16:33:06.082Z,10.75
2023-01-07T16:35:34.073Z,11.81
2023-01-07T16:38:01.787Z,11.77
2023-01-07T16:40:36.285Z,12.03
2023-01-07T16:43:04.327Z,11.76
2023-01-07T16:45:32.884Z,11.90
2023-01-07T16:48:14.040Z,11.18
2023-01-07T16:50:42.165Z,11.82
2023-01-07T16:53:27.535Z,11.16
2023-01-07T16:56:09.457Z,10.93
2023-01-07T16:58:55.646Z,11.37
2023-01-07T17:01:33.747Z,11.31
2023-01-07T17:04:01.754Z,11.05
2023-01-07T17:06:30.114Z,11.17
2023-01-07T17:08:57.430Z,10.81
2023-01-07T17:11:29.075Z,11.13
2023-01-07T17:13:56.567Z,9.65
2023-01-07T17:16:25.594Z,9.78
2023-01-07T17:18:53.072Z,9.61
2023-01-07T17:21:40.105Z,9.76
2023-01-07T17:24:26.011Z,10.18
2023-01-07T17:26:53.489Z,10.02
2023-01-07T17:29:20.812Z,8.99
2023-01-07T17:31:48.188Z,8.90
2023-01-07T17:34:16.408Z,9.33
2023-01-07T17:36:43.761Z,9.34
2023-01-07T17:39:11.463Z,8.42
2023-01-07T17:41:57.309Z,8.65
2023-01-07T17:44:24.612Z,9.17
2023-01-07T17:46:52.143Z,9.07
2023-01-07T17:49:20.470Z,9.19
2023-01-07T17:51:47.963Z,8.17
2023-01-07T17:54:22.561Z,9.20
2023-01-07T17:56:49.802Z,8.69
2023-01-07T17:59:21.065Z,9.13
2023-01-07T18:01:48.483Z,9.29
2023-01-07T18:04:17.635Z,9.25
2023-01-07T18:06:45.174Z,9.02
2023-01-07T18:09:13.702Z,9.07
2023-01-07T18:12:00.547Z,9.05
2023-01-07T18:14:27.765Z,9.19
2023-01-07T18:16:55.353Z,9.60
2023-01-07T18:19:22.656Z,9.87
2023-01-07T18:21:49.841Z,9.78
2023-01-07T18:24:18.612Z,9.54
2023-01-07T18:26:46.059Z,9.51
2023-01-07T18:29:14.015Z,9.24
2023-01-07T18:31:42.585Z,9.57
2023-01-07T18:34:10.602Z,9.72
2023-01-07T18:36:37.876Z,9.95
2023-01-07T18:39:05.593Z,10.04
2023-01-07T18:41:33.480Z,9.52
2023-01-07T18:44:00.717Z,9.29
2023-01-07T18:46:28.205Z,9.00
2023-01-07T18:48:55.579Z,9.72
2023-01-07T18:51:22.870Z,9.74
2023-01-07T18:53:50.599Z,9.82
2023-01-07T18:56:17.815Z,9.79
2023-01-07T18:58:45.260Z,9.09
2023-01-07T19:01:12.957Z,9.22
2023-01-07T19:03:40.341Z,8.99
2023-01-07T19:06:08.528Z,9.03
2023-01-07T19:08:36.103Z,8.45
2023-01-07T19:11:07.424Z,9.54
2023-01-07T19:13:34.701Z,9.46
2023-01-07T19:16:05.165Z,9.14
2023-01-07T19:18:32.605Z,9.26
2023-01-07T19:21:03.561Z,8.79
2023-01-07T19:23:31.020Z,9.14
2023-01-07T19:26:02.418Z,9.27
2023-01-07T19:28:29.835Z,9.36
2023-01-07T19:30:57.402Z,9.32
2023-01-07T19:33:24.821Z,9.62
2023-01-07T19:36:04.926Z,9.21
2023-01-07T19:38:32.704Z,9.54
2023-01-07T19:40:59.875Z,9.53
2023-01-07T19:43:27.176Z,9.33
2023-01-07T19:45:55.359Z,9.49
2023-01-07T19:48:23.111Z,9.34
2023-01-07T19:50:57.292Z,8.50
2023-01-07T19:53:25.030Z,9.40
2023-01-07T19:55:52.609Z,9.10
2023-01-07T19:58:22.678Z,8.79
2023-01-07T20:00:50.709Z,8.71
2023-01-07T20:03:18.174Z,9.20
2023-01-07T20:05:45.372Z,9.37
2023-01-07T20:08:12.659Z,8.79
2023-01-07T20:10:40.141Z,9.53
2023-01-07T20:13:07.532Z,9.06
2023-01-07T20:15:34.818Z,9.45
2023-01-07T20:18:02.325Z,9.47
2023-01-07T20:20:29.997Z,8.77
2023-01-07T20:22:57.237Z,8.78
2023-01-07T20:25:24.711Z,8.69
2023-01-07T20:27:51.866Z,8.65
2023-01-07T20:30:19.069Z,9.22
2023-01-07T20:32:46.606Z,9.36
2023-01-07T20:35:13.781Z,9.39
2023-01-07T20:37:41.676Z,9.68
2023-01-07T20:40:09.399Z,9.53
2023-01-07T20:42:36.569Z,9.04
2023-01-07T20:45:03.895Z,8.78
2023-01-07T20:47:31.338Z,8.37
2023-01-07T20:49:58.673Z,9.20
2023-01-07T20:52:25.829Z,9.14
2023-01-07T20:54:53.347Z,9.25
2023-01-07T20:57:20.605Z,9.33
2023-01-07T20:59:47.795Z,9.13
2023-01-07T21:02:16.888Z,9.33
2023-01-07T21:04:44.245Z,9.42
2023-01-07T21:07:11.464Z,9.47
2023-01-07T21:09:39.075Z,9.70
2023-01-07T21:12:06.370Z,8.70
2023-01-07T21:14:33.617Z,9.85
2023-01-07T21:17:01.087Z,10.03
2023-01-07T21:19:28.236Z,10.18
2023-01-07T21:21:55.542Z,10.32
2023-01-07T21:24:23.041Z,10.15
2023-01-07T21:26:50.447Z,9.03
2023-01-07T21:29:17.740Z,10.46
2023-01-07T21:31:46.103Z,10.62
2023-01-07T21:34:13.584Z,10.67
2023-01-07T21:36:40.867Z,10.65
2023-01-07T21:39:08.648Z,10.41
2023-01-07T21:41:35.913Z,9.96
2023-01-07T21:44:03.210Z,10.45
2023-01-07T21:46:30.746Z,10.12
2023-01-07T21:48:58.081Z,9.85
2023-01-07T21:51:25.900Z,10.10
2023-01-07T21:53:55.867Z,10.43
2023-01-07T21:56:23.766Z,10.31
2023-01-07T21:58:51.049Z,10.33
2023-01-07T22:01:18.891Z,10.57
2023-01-07T22:03:47.225Z,10.76
2023-01-07T22:06:16.757Z,10.46
2023-01-07T22:08:43.896Z,10.55
2023-01-07T22:11:17.411Z,10.84
2023-01-07T22:13:44.685Z,10.24
2023-01-07T22:16:12.242Z,9.83
2023-01-07T22:18:41.002Z,10.59
2023-01-07T22:21:08.172Z,9.81
2023-01-07T22:23:37.376Z,10.34
2023-01-07T22:26:05.476Z,10.25
2023-01-07T22:28:33.688Z,10.42
2023-01-07T22:31:02.238Z,9.40
2023-01-07T22:33:29.537Z,9.74
2023-01-07T22:35:56.722Z,9.45
2023-01-07T22:38:24.276Z,10.11
2023-01-07T22:40:51.468Z,10.50
2023-01-07T22:43:18.956Z,9.71
2023-01-07T22:45:56.885Z,8.97
2023-01-07T22:48:25.021Z,9.98
2023-01-07T22:50:53.049Z,8.84
2023-01-07T22:53:21.116Z,9.03
2023-01-07T22:55:49.266Z,10.17
2023-01-07T22:58:16.976Z,10.23
2023-01-07T23:00:53.031Z,10.01
2023-01-07T23:03:21.326Z,10.11
2023-01-07T23:05:48.881Z,10.25
2023-01-07T23:08:16.256Z,10.10
2023-01-07T23:10:43.803Z,10.69
2023-01-07T23:13:11.127Z,10.68
2023-01-07T23:15:38.721Z,10.30
2023-01-07T23:18:06.862Z,9.79
2023-01-07T23:20:34.535Z,10.28
2023-01-07T23:23:01.879Z,10.97
2023-01-07T23:25:29.757Z,9.59
2023-01-07T23:27:56.979Z,9.67
2023-01-07T23:30:24.121Z,10.68
2023-01-07T23:32:51.642Z,10.40
2023-01-07T23:35:18.935Z,10.15
2023-01-07T23:37:46.128Z,9.72
2023-01-07T23:40:13.611Z,10.33
2023-01-07T23:42:40.748Z,9.28
2023-01-07T23:45:08.189Z,10.16
2023-01-07T23:47:35.722Z,9.60
2023-01-07T23:50:02.985Z,9.40
2023-01-07T23:52:30.161Z,9.81
2023-01-07T23:54:57.626Z,10.21
2023-01-07T23:57:25.001Z,10.23
2023-01-07T23:59:52.165Z,10.44
